createdAt,value
2018-02-25T00:00:07.405Z,98173.84
2018-02-25T00:02:35.248Z,98172.11
2018-02-25T00:05:02.825Z,98165.59
2018-02-25T00:07:30.392Z,98174.73
2018-02-25T00:09:58.016Z,98176.00
2018-02-25T00:12:25.591Z,98174.25
2018-02-25T00:14:53.164Z,98179.03
2018-02-25T00:17:20.782Z,98182.55
2018-02-25T00:19:48.371Z,98171.86
2018-02-25T00:22:31.727Z,98174.36
2018-02-25T00:24:59.294Z,98182.80
2018-02-25T00:27:26.934Z,98185.22
2018-02-25T00:29:54.890Z,98179.03
2018-02-25T00:32:22.467Z,98183.45
2018-02-25T00:34:50.053Z,98185.64
2018-02-25T00:37:17.683Z,98186.06
2018-02-25T00:39:45.257Z,98183.53
2018-02-25T00:42:12.818Z,98183.95
2018-02-25T00:44:40.440Z,98184.95
2018-02-25T00:47:07.990Z,98183.25
2018-02-25T00:49:35.541Z,98186.35
2018-02-25T00:52:03.200Z,98181.75
2018-02-25T00:54:30.781Z,98183.68
2018-02-25T00:56:58.370Z,98182.50
2018-02-25T00:59:25.961Z,98188.59
2018-02-25T01:01:53.526Z,98190.31
2018-02-25T01:04:21.088Z,98194.15
2018-02-25T01:06:48.681Z,98185.58
2018-02-25T01:09:16.237Z,98186.75
2018-02-25T01:11:43.830Z,98185.89
2018-02-25T01:14:11.713Z,98187.77
2018-02-25T01:16:39.262Z,98191.90
2018-02-25T01:19:07.373Z,98198.25
2018-02-25T01:21:34.995Z,98198.44
2018-02-25T01:24:02.576Z,98203.64
2018-02-25T01:26:30.132Z,98204.63
2018-02-25T01:28:57.762Z,98206.73
2018-02-25T01:31:25.645Z,98212.39
2018-02-25T01:33:53.203Z,98209.33
2018-02-25T01:36:20.796Z,98209.44
2018-02-25T01:38:48.357Z,98218.79
2018-02-25T01:41:15.912Z,98219.23
2018-02-25T01:43:43.740Z,98219.29
2018-02-25T01:46:11.337Z,98222.12
2018-02-25T01:48:38.913Z,98222.97
2018-02-25T01:51:06.583Z,98221.22
2018-02-25T01:53:34.227Z,98228.80
2018-02-25T01:56:01.826Z,98224.44
2018-02-25T01:58:29.407Z,98228.67
2018-02-25T02:00:56.973Z,98227.27
2018-02-25T02:03:24.529Z,98225.16
2018-02-25T02:05:52.233Z,98232.02
2018-02-25T02:08:19.790Z,98238.92
2018-02-25T02:10:47.375Z,98239.47
2018-02-25T02:13:14.978Z,98246.27
2018-02-25T02:15:42.608Z,98247.67
2018-02-25T02:18:10.173Z,98249.98
2018-02-25T02:20:37.823Z,98245.29
2018-02-25T02:23:05.474Z,98260.72
2018-02-25T02:25:33.054Z,98264.45
2018-02-25T02:28:00.668Z,98267.38
2018-02-25T02:30:28.277Z,98266.77
2018-02-25T02:32:55.949Z,98267.55
2018-02-25T02:35:23.561Z,98272.59
2018-02-25T02:37:51.181Z,98269.11
2018-02-25T02:40:18.810Z,98273.05
2018-02-25T02:42:46.506Z,98281.19
2018-02-25T02:45:14.067Z,98275.16
2018-02-25T02:47:41.627Z,98287.58
2018-02-25T02:50:09.524Z,98286.11
2018-02-25T02:52:37.073Z,98282.59
2018-02-25T02:55:05.590Z,98287.73
2018-02-25T02:57:33.218Z,98290.16
2018-02-25T03:00:01.142Z,98291.36
2018-02-25T03:02:28.689Z,98287.59
2018-02-25T03:04:56.288Z,98288.44
2018-02-25T03:07:24.552Z,98289.89
2018-02-25T03:09:52.100Z,98298.38
2018-02-25T03:12:19.701Z,98296.35
2018-02-25T03:14:47.256Z,98297.84
2018-02-25T03:17:14.825Z,98303.36
2018-02-25T03:19:42.550Z,98304.69
2018-02-25T03:22:10.112Z,98314.73
2018-02-25T03:24:37.682Z,98313.94
2018-02-25T03:27:05.315Z,98319.76
2018-02-25T03:29:32.926Z,98323.26
2018-02-25T03:32:00.630Z,98311.72
2018-02-25T03:34:28.451Z,98317.29
2018-02-25T03:36:56.090Z,98316.80
2018-02-25T03:39:23.670Z,98315.66
2018-02-25T03:41:51.312Z,98324.02
2018-02-25T03:44:18.894Z,98322.89
2018-02-25T03:46:46.460Z,98324.95
2018-02-25T03:49:14.454Z,98328.12
2018-02-25T03:51:42.082Z,98344.68
2018-02-25T03:54:09.946Z,98340.97
2018-02-25T03:56:37.556Z,98351.06
2018-02-25T03:59:05.127Z,98353.41
2018-02-25T04:01:32.703Z,98354.05
2018-02-25T04:04:01.179Z,98355.16
2018-02-25T04:06:28.788Z,98351.53
2018-02-25T04:08:56.377Z,98358.66
2018-02-25T04:11:24.001Z,98363.98
2018-02-25T04:13:51.591Z,98352.70
2018-02-25T04:16:19.197Z,98356.38
2018-02-25T04:18:47.154Z,98356.85
2018-02-25T04:21:14.720Z,98362.77
2018-02-25T04:23:42.355Z,98362.98
2018-02-25T04:26:10.038Z,98367.55
2018-02-25T04:28:37.600Z,98366.53
2018-02-25T04:31:05.190Z,98364.41
2018-02-25T04:33:32.846Z,98359.56
2018-02-25T04:36:00.529Z,98361.59
2018-02-25T04:38:28.110Z,98357.22
2018-02-25T04:40:55.809Z,98359.28
2018-02-25T04:43:23.635Z,98357.55
2018-02-25T04:45:51.228Z,98360.63
2018-02-25T04:48:18.841Z,98357.85
2018-02-25T04:50:46.420Z,98357.00
2018-02-25T04:53:14.028Z,98359.40
2018-02-25T04:55:41.762Z,98359.20
2018-02-25T04:58:09.407Z,98371.79
2018-02-25T05:00:37.550Z,98376.52
2018-02-25T05:03:05.449Z,98382.39
2018-02-25T05:05:33.009Z,98383.72
2018-02-25T05:08:00.588Z,98380.47
2018-02-25T05:10:28.205Z,98389.14
2018-02-25T05:12:55.786Z,98386.09
2018-02-25T05:15:23.371Z,98399.11
2018-02-25T05:17:50.973Z,98407.13
2018-02-25T05:20:18.528Z,98411.48
2018-02-25T05:22:46.083Z,98417.48
2018-02-25T05:25:13.795Z,98416.21
2018-02-25T05:27:41.383Z,98429.17
2018-02-25T05:30:09.001Z,98422.05
2018-02-25T05:32:36.851Z,98428.50
2018-02-25T05:35:04.409Z,98419.81
2018-02-25T05:37:32.137Z,98429.03
2018-02-25T05:39:59.824Z,98436.20
2018-02-25T05:42:27.462Z,98440.42
2018-02-25T05:44:55.035Z,98442.12
2018-02-25T05:47:22.671Z,98448.14
2018-02-25T05:49:50.321Z,98448.20
2018-02-25T05:52:17.893Z,98446.09
2018-02-25T05:54:45.540Z,98457.67
2018-02-25T05:57:13.134Z,98455.63
2018-02-25T05:59:40.713Z,98460.33
2018-02-25T06:02:08.357Z,98466.02
2018-02-25T06:04:35.936Z,98465.02
2018-02-25T06:07:03.518Z,98466.47
2018-02-25T06:09:31.410Z,98469.37
2018-02-25T06:11:58.969Z,98467.52
2018-02-25T06:14:26.545Z,98470.23
2018-02-25T06:16:54.168Z,98475.78
2018-02-25T06:19:21.806Z,98476.63
2018-02-25T06:21:49.374Z,98476.22
2018-02-25T06:24:17.785Z,98467.28
2018-02-25T06:26:45.442Z,98474.36
2018-02-25T06:29:13.050Z,98472.80
2018-02-25T06:31:40.732Z,98486.39
2018-02-25T06:34:08.317Z,98484.48
2018-02-25T06:36:35.893Z,98494.07
2018-02-25T06:39:03.659Z,98492.86
2018-02-25T06:41:31.257Z,98501.97
2018-02-25T06:43:58.821Z,98492.42
2018-02-25T06:46:26.449Z,98486.80
2018-02-25T06:48:56.259Z,98486.69
2018-02-25T06:51:23.822Z,98491.64
2018-02-25T06:53:51.443Z,98491.28
2018-02-25T06:56:18.999Z,98490.61
2018-02-25T06:58:46.570Z,98484.62
2018-02-25T07:01:14.736Z,98494.91
2018-02-25T07:03:42.363Z,98503.27
2018-02-25T07:06:09.933Z,98503.38
2018-02-25T07:08:37.541Z,98505.72
2018-02-25T07:11:05.122Z,98500.06
2018-02-25T07:13:32.708Z,98514.52
2018-02-25T07:16:00.346Z,98503.60
2018-02-25T07:18:27.964Z,98510.84
2018-02-25T07:20:55.542Z,98514.39
2018-02-25T07:23:23.436Z,98521.20
2018-02-25T07:25:51.173Z,98527.88
2018-02-25T07:28:18.750Z,98533.97
2018-02-25T07:30:46.395Z,98539.80
2018-02-25T07:33:14.036Z,98538.78
2018-02-25T07:35:41.616Z,98542.95
2018-02-25T07:38:09.367Z,98541.95
2018-02-25T07:40:37.838Z,98542.31
2018-02-25T07:43:05.443Z,98546.88
2018-02-25T07:45:33.137Z,98545.36
2018-02-25T07:48:00.700Z,98552.78
2018-02-25T07:50:28.260Z,98543.31
2018-02-25T07:52:55.855Z,98546.04
2018-02-25T07:55:24.462Z,98547.94
2018-02-25T07:57:52.041Z,98554.70
2018-02-25T08:00:19.664Z,98555.96
2018-02-25T08:02:47.244Z,98552.27
2018-02-25T08:05:14.812Z,98559.25
2018-02-25T08:07:42.431Z,98556.50
2018-02-25T08:10:10.026Z,98562.84
2018-02-25T08:12:37.608Z,98565.83
2018-02-25T08:15:05.244Z,98569.98
2018-02-25T08:17:32.800Z,98564.53
2018-02-25T08:20:00.446Z,98574.86
2018-02-25T08:22:28.074Z,98575.59
2018-02-25T08:24:55.649Z,98575.91
2018-02-25T08:27:23.217Z,98577.97
2018-02-25T08:29:51.215Z,98576.13
2018-02-25T08:32:18.787Z,98580.80
2018-02-25T08:34:46.356Z,98577.78
2018-02-25T08:37:13.967Z,98586.34
2018-02-25T08:39:41.568Z,98590.16
2018-02-25T08:42:09.239Z,98589.80
2018-02-25T08:44:36.851Z,98592.02
2018-02-25T08:47:04.409Z,98594.74
2018-02-25T08:49:31.976Z,98595.70
2018-02-25T08:51:59.661Z,98596.15
2018-02-25T08:54:27.240Z,98599.22
2018-02-25T08:56:54.796Z,98602.70
2018-02-25T08:59:22.649Z,98600.12
2018-02-25T09:01:50.205Z,98600.73
2018-02-25T09:04:17.790Z,98599.46
2018-02-25T09:06:45.429Z,98615.15
2018-02-25T09:09:13.050Z,98615.52
2018-02-25T09:11:40.617Z,98626.30
2018-02-25T09:14:08.357Z,98626.44
2018-02-25T09:16:35.927Z,98627.41
2018-02-25T09:19:03.691Z,98628.63
2018-02-25T09:21:31.296Z,98629.37
2018-02-25T09:23:58.880Z,98627.25
2018-02-25T09:26:26.470Z,98630.16
2018-02-25T09:28:54.079Z,98628.59
2018-02-25T09:31:21.715Z,98629.36
2018-02-25T09:33:49.277Z,98630.02
2018-02-25T09:36:16.889Z,98621.64
2018-02-25T09:38:44.477Z,98627.66
2018-02-25T09:41:12.056Z,98629.73
2018-02-25T09:43:39.870Z,98634.95
2018-02-25T09:46:07.425Z,98640.21
2018-02-25T09:48:34.992Z,98640.88
2018-02-25T09:51:02.597Z,98639.36
2018-02-25T09:53:30.162Z,98642.94
2018-02-25T09:55:57.725Z,98640.25
2018-02-25T09:58:25.367Z,98638.67
2018-02-25T10:00:53.058Z,98632.64
2018-02-25T10:03:20.644Z,98634.19
2018-02-25T10:05:48.262Z,98634.48
2018-02-25T10:08:15.837Z,98631.01
2018-02-25T10:10:43.477Z,98629.98
2018-02-25T10:13:11.171Z,98623.44
2018-02-25T10:15:38.741Z,98627.88
2018-02-25T10:18:06.330Z,98628.03
2018-02-25T10:20:33.945Z,98626.92
2018-02-25T10:23:01.524Z,98630.63
2018-02-25T10:25:29.105Z,98634.88
2018-02-25T10:27:56.797Z,98624.44
2018-02-25T10:30:24.381Z,98624.99
2018-02-25T10:32:51.946Z,98623.41
2018-02-25T10:35:19.545Z,98625.56
2018-02-25T10:37:47.108Z,98624.60
2018-02-25T10:40:14.678Z,98629.49
2018-02-25T10:42:42.311Z,98631.37
2018-02-25T10:45:10.521Z,98625.97
2018-02-25T10:47:38.073Z,98618.09
2018-02-25T10:50:05.787Z,98624.25
2018-02-25T10:52:33.358Z,98622.64
2018-02-25T10:55:01.013Z,98626.28
2018-02-25T10:57:28.852Z,98622.00
2018-02-25T10:59:56.414Z,98616.69
2018-02-25T11:02:24.070Z,98622.09
2018-02-25T11:04:51.754Z,98619.34
2018-02-25T11:07:19.413Z,98620.78
2018-02-25T11:09:46.990Z,98616.06
2018-02-25T11:12:14.774Z,98623.35
2018-02-25T11:14:42.435Z,98629.43
2018-02-25T11:17:10.053Z,98623.61
2018-02-25T11:19:37.657Z,98627.64
2018-02-25T11:22:05.247Z,98625.03
2018-02-25T11:24:32.807Z,98622.06
2018-02-25T11:27:00.704Z,98622.86
2018-02-25T11:29:28.420Z,98624.70
2018-02-25T11:31:56.023Z,98626.27
2018-02-25T11:34:23.643Z,98627.78
2018-02-25T11:36:51.284Z,98628.87
2018-02-25T11:39:21.939Z,98626.03
2018-02-25T11:41:49.974Z,98616.30
2018-02-25T11:44:17.578Z,98620.53
2018-02-25T11:46:45.547Z,98614.77
2018-02-25T11:49:13.283Z,98614.77
2018-02-25T11:51:42.422Z,98605.21
2018-02-25T11:54:10.172Z,98608.87
2018-02-25T11:56:39.120Z,98604.94
2018-02-25T11:59:08.356Z,98605.46
2018-02-25T12:01:36.863Z,98601.58
2018-02-25T12:04:07.110Z,98598.08
2018-02-25T12:06:35.065Z,98601.30
2018-02-25T12:09:04.603Z,98602.77
2018-02-25T12:11:33.413Z,98597.75
2018-02-25T12:14:02.316Z,98597.95
2018-02-25T12:16:31.005Z,98590.02
2018-02-25T12:19:00.414Z,98588.05
2018-02-25T12:21:30.254Z,98593.41
2018-02-25T12:23:58.595Z,98590.88
2018-02-25T12:26:27.203Z,98587.38
2018-02-25T12:28:56.864Z,98586.43
2018-02-25T12:31:25.711Z,98582.97
2018-02-25T12:33:54.207Z,98579.84
2018-02-25T12:36:22.786Z,98579.80
2018-02-25T12:38:51.561Z,98573.64
2018-02-25T12:41:20.413Z,98572.12
2018-02-25T12:43:49.926Z,98561.75
2018-02-25T12:46:18.911Z,98563.59
2018-02-25T12:48:47.935Z,98556.73
2018-02-25T12:51:16.871Z,98557.95
2018-02-25T12:53:46.154Z,98552.45
2018-02-25T12:56:15.438Z,98549.17
2018-02-25T12:58:43.953Z,98553.92
2018-02-25T13:01:12.598Z,98554.84
2018-02-25T13:03:40.363Z,98554.27
2018-02-25T13:06:07.932Z,98553.23
2018-02-25T13:08:35.563Z,98553.79
2018-02-25T13:11:04.461Z,98549.83
2018-02-25T13:13:33.205Z,98557.05
2018-02-25T13:16:01.775Z,98553.50
2018-02-25T13:18:31.362Z,98554.80
2018-02-25T13:21:00.376Z,98550.20
2018-02-25T13:23:28.017Z,98545.00
2018-02-25T13:25:55.630Z,98543.30
2018-02-25T13:28:23.201Z,98540.11
2018-02-25T13:30:50.771Z,98536.98
2018-02-25T13:33:18.741Z,98535.42
2018-02-25T13:35:46.498Z,98537.95
2018-02-25T13:38:14.106Z,98545.42
2018-02-25T13:40:41.778Z,98537.48
2018-02-25T13:43:09.386Z,98527.88
2018-02-25T13:45:37.070Z,98521.14
2018-02-25T13:48:04.808Z,98528.17
2018-02-25T13:50:32.809Z,98529.23
2018-02-25T13:53:00.482Z,98528.39
2018-02-25T13:55:28.100Z,98527.92
2018-02-25T13:57:55.676Z,98529.13
2018-02-25T14:00:23.229Z,98540.09
2018-02-25T14:02:51.792Z,98537.84
2018-02-25T14:05:19.516Z,98546.30
2018-02-25T14:07:47.136Z,98539.83
2018-02-25T14:10:14.982Z,98541.12
2018-02-25T14:12:42.553Z,98546.59
2018-02-25T14:15:10.154Z,98550.60
2018-02-25T14:17:37.769Z,98541.66
2018-02-25T14:20:05.333Z,98541.42
2018-02-25T14:22:33.407Z,98536.69
2018-02-25T14:25:01.019Z,98525.04
2018-02-25T14:27:28.600Z,98531.44
2018-02-25T14:29:57.099Z,98536.19
2018-02-25T14:32:24.784Z,98535.76
2018-02-25T14:34:52.381Z,98541.69
2018-02-25T14:37:20.037Z,98535.95
2018-02-25T14:39:48.579Z,98536.29
2018-02-25T14:42:16.145Z,98538.04
2018-02-25T14:44:43.710Z,98543.29
2018-02-25T14:47:11.345Z,98542.91
2018-02-25T14:49:38.918Z,98548.09
2018-02-25T14:52:06.581Z,98546.01
2018-02-25T14:54:34.187Z,98552.98
2018-02-25T14:57:01.872Z,98545.93
2018-02-25T14:59:29.436Z,98541.20
2018-02-25T15:01:57.069Z,98543.65
2018-02-25T15:04:24.682Z,98543.43
2018-02-25T15:06:52.325Z,98552.14
2018-02-25T15:09:20.157Z,98546.72
2018-02-25T15:11:47.877Z,98544.89
2018-02-25T15:14:15.452Z,98543.33
2018-02-25T15:16:43.078Z,98555.77
2018-02-25T15:19:10.678Z,98555.63
2018-02-25T15:21:38.305Z,98562.16
2018-02-25T15:24:06.005Z,98550.97
2018-02-25T15:26:33.676Z,98554.16
2018-02-25T15:29:01.255Z,98552.02
2018-02-25T15:31:28.874Z,98559.38
2018-02-25T15:33:56.543Z,98558.57
2018-02-25T15:36:24.271Z,98568.05
2018-02-25T15:38:51.986Z,98565.69
2018-02-25T15:41:19.670Z,98570.42
2018-02-25T15:43:47.262Z,98569.75
2018-02-25T15:46:15.193Z,98568.77
2018-02-25T15:48:42.914Z,98571.98
2018-02-25T15:51:10.498Z,98575.05
2018-02-25T15:53:38.960Z,98574.34
2018-02-25T15:56:07.534Z,98572.91
2018-02-25T15:58:35.202Z,98571.59
2018-02-25T16:01:02.833Z,98580.30
2018-02-25T16:03:30.410Z,98587.02
2018-02-25T16:05:58.195Z,98597.25
2018-02-25T16:08:25.830Z,98606.25
2018-02-25T16:10:53.491Z,98614.95
2018-02-25T16:13:21.179Z,98619.17
2018-02-25T16:15:48.808Z,98619.47
2018-02-25T16:18:16.453Z,98630.66
2018-02-25T16:20:44.113Z,98640.39
2018-02-25T16:23:11.839Z,98647.13
2018-02-25T16:25:39.429Z,98647.81
2018-02-25T16:28:07.015Z,98650.30
2018-02-25T16:30:34.913Z,98654.38
2018-02-25T16:33:02.484Z,98652.66
2018-02-25T16:35:30.108Z,98665.62
2018-02-25T16:37:57.720Z,98659.35
2018-02-25T16:40:25.301Z,98671.16
2018-02-25T16:42:52.869Z,98665.70
2018-02-25T16:45:20.475Z,98661.84
2018-02-25T16:47:48.158Z,98667.40
2018-02-25T16:50:15.857Z,98668.06
2018-02-25T16:52:43.486Z,98667.55
2018-02-25T16:55:11.595Z,98657.77
2018-02-25T16:57:39.212Z,98653.00
2018-02-25T17:00:06.910Z,98663.41
2018-02-25T17:02:34.829Z,98662.13
2018-02-25T17:05:02.507Z,98671.69
2018-02-25T17:07:30.180Z,98671.18
2018-02-25T17:09:58.108Z,98669.30
2018-02-25T17:12:25.819Z,98681.67
2018-02-25T17:14:53.650Z,98680.09
2018-02-25T17:17:21.316Z,98690.86
2018-02-25T17:19:49.013Z,98695.72
2018-02-25T17:22:16.732Z,98692.00
2018-02-25T17:24:44.388Z,98684.49
2018-02-25T17:27:11.979Z,98683.69
2018-02-25T17:29:39.714Z,98679.33
2018-02-25T17:32:07.395Z,98685.65
2018-02-25T17:34:34.979Z,98681.03
2018-02-25T17:37:02.837Z,98677.63
2018-02-25T17:39:30.500Z,98667.63
2018-02-25T17:41:59.285Z,98672.20
2018-02-25T17:44:27.007Z,98672.03
2018-02-25T17:46:54.694Z,98678.17
2018-02-25T17:49:22.271Z,98684.79
2018-02-25T17:51:49.972Z,98684.20
2018-02-25T17:54:17.550Z,98688.08
2018-02-25T17:56:45.410Z,98684.92
2018-02-25T17:59:13.074Z,98686.25
2018-02-25T18:01:41.023Z,98689.95
2018-02-25T18:04:08.755Z,98695.31
2018-02-25T18:06:36.376Z,98683.14
2018-02-25T18:09:04.087Z,98686.52
2018-02-25T18:11:31.733Z,98680.03
2018-02-25T18:13:59.393Z,98684.25
2018-02-25T18:16:27.811Z,98680.12
2018-02-25T18:18:55.464Z,98684.13
2018-02-25T18:21:23.198Z,98692.13
2018-02-25T18:23:50.878Z,98688.45
2018-02-25T18:26:18.527Z,98691.30
2018-02-25T18:28:46.191Z,98705.16
2018-02-25T18:31:13.818Z,98700.55
2018-02-25T18:33:41.491Z,98697.09
2018-02-25T18:36:09.466Z,98685.48
2018-02-25T18:38:37.155Z,98680.48
2018-02-25T18:41:04.771Z,98673.94
2018-02-25T18:43:32.452Z,98682.28
2018-02-25T18:46:00.070Z,98679.55
2018-02-25T18:48:27.668Z,98672.00
2018-02-25T18:50:55.317Z,98673.63
2018-02-25T18:53:22.904Z,98683.63
2018-02-25T18:55:50.620Z,98682.48
2018-02-25T18:58:18.622Z,98683.48
2018-02-25T19:00:46.349Z,98683.61
2018-02-25T19:03:14.063Z,98675.73
2018-02-25T19:05:42.072Z,98681.92
2018-02-25T19:08:09.738Z,98673.05
2018-02-25T19:10:37.990Z,98669.97
2018-02-25T19:13:05.729Z,98675.09
2018-02-25T19:15:33.336Z,98668.28
2018-02-25T19:18:00.973Z,98670.47
2018-02-25T19:20:28.645Z,98665.56
2018-02-25T19:22:56.220Z,98669.64
2018-02-25T19:25:24.070Z,98667.30
2018-02-25T19:27:51.697Z,98662.50
2018-02-25T19:30:19.416Z,98665.27
2018-02-25T19:32:47.958Z,98663.58
2018-02-25T19:35:15.745Z,98650.09
2018-02-25T19:37:48.812Z,98652.79
2018-02-25T19:40:16.470Z,98646.27
2018-02-25T19:42:44.049Z,98646.94
2018-02-25T19:45:11.645Z,98640.72
2018-02-25T19:47:39.513Z,98636.89
2018-02-25T19:50:07.142Z,98635.86
2018-02-25T19:52:34.730Z,98632.81
2018-02-25T19:55:02.353Z,98626.51
2018-02-25T19:57:29.934Z,98619.66
2018-02-25T19:59:57.608Z,98621.50
2018-02-25T20:02:26.332Z,98621.86
2018-02-25T20:04:53.926Z,98619.55
2018-02-25T20:07:21.508Z,98615.38
2018-02-25T20:09:49.214Z,98608.15
2018-02-25T20:12:16.865Z,98609.95
2018-02-25T20:14:44.449Z,98609.06
2018-02-25T20:17:12.112Z,98606.39
2018-02-25T20:19:39.696Z,98605.39
2018-02-25T20:22:07.310Z,98610.09
2018-02-25T20:24:35.251Z,98608.47
2018-02-25T20:27:02.862Z,98598.70
2018-02-25T20:29:30.540Z,98597.56
2018-02-25T20:31:58.189Z,98602.88
2018-02-25T20:34:25.853Z,98596.78
2018-02-25T20:36:53.501Z,98594.02
2018-02-25T20:39:21.132Z,98596.41
2018-02-25T20:41:48.780Z,98588.95
2018-02-25T20:44:16.459Z,98589.00
2018-02-25T20:46:44.115Z,98588.91
2018-02-25T20:49:11.726Z,98593.69
2018-02-25T20:51:39.378Z,98597.82
2018-02-25T20:54:07.073Z,98593.60
2018-02-25T20:56:34.712Z,98595.52
2018-02-25T20:59:02.298Z,98589.03
2018-02-25T21:01:30.446Z,98586.93
2018-02-25T21:03:58.046Z,98585.08
2018-02-25T21:06:25.666Z,98585.34
2018-02-25T21:08:53.310Z,98581.17
2018-02-25T21:11:20.924Z,98589.22
2018-02-25T21:13:48.588Z,98588.28
2018-02-25T21:16:16.250Z,98589.47
2018-02-25T21:18:43.830Z,98588.27
2018-02-25T21:24:20.475Z,98594.00
2018-02-25T21:26:51.790Z,98589.00
2018-02-25T21:29:41.508Z,98586.67
2018-02-25T21:32:19.657Z,98586.25
2018-02-25T21:35:28.130Z,98594.62
2018-02-25T21:45:02.844Z,98561.33
2018-02-25T21:56:19.911Z,98555.71
2018-02-25T21:58:58.368Z,98561.09
2018-02-25T22:01:42.369Z,98564.38
2018-02-25T22:04:12.216Z,98568.20
2018-02-25T22:06:42.891Z,98562.41
2018-02-25T22:09:18.657Z,98563.69
2018-02-25T22:11:57.753Z,98564.38
2018-02-25T22:14:55.028Z,98558.41
2018-02-25T22:17:44.849Z,98564.04
2018-02-25T22:20:30.881Z,98566.55
2018-02-25T22:23:20.348Z,98567.28
2018-02-25T22:25:58.427Z,98571.28
2018-02-25T22:28:41.359Z,98562.93
2018-02-25T22:31:17.397Z,98556.95
2018-02-25T22:33:55.178Z,98554.91
2018-02-25T22:36:30.280Z,98552.52
2018-02-25T22:38:58.801Z,98561.34
2018-02-25T22:41:27.740Z,98551.11
2018-02-25T22:43:55.360Z,98556.70
2018-02-25T22:46:22.971Z,98562.12
2018-02-25T22:48:50.533Z,98554.53
2018-02-25T22:51:18.084Z,98557.56
2018-02-25T22:53:45.913Z,98550.64
2018-02-25T22:56:13.472Z,98541.65
2018-02-25T22:58:41.032Z,98541.94
2018-02-25T23:01:08.653Z,98537.98
2018-02-25T23:03:36.858Z,98538.07
2018-02-25T23:06:04.421Z,98530.05
2018-02-25T23:08:32.236Z,98531.88
2018-02-25T23:10:59.858Z,98526.97
2018-02-25T23:13:27.417Z,98532.27
2018-02-25T23:15:55.048Z,98532.95
2018-02-25T23:18:22.614Z,98527.63
2018-02-25T23:20:50.192Z,98531.50
2018-02-25T23:23:17.793Z,98526.21
2018-02-25T23:25:45.411Z,98526.45
2018-02-25T23:28:12.964Z,98515.41
2018-02-25T23:30:40.797Z,98517.52
2018-02-25T23:33:08.354Z,98514.66
2018-02-25T23:35:35.908Z,98515.00
2018-02-25T23:38:03.550Z,98520.93
2018-02-25T23:40:31.209Z,98524.47
2018-02-25T23:42:58.765Z,98519.48
2018-02-25T23:45:27.322Z,98511.89
2018-02-25T23:47:54.882Z,98506.27
2018-02-25T23:50:22.453Z,98501.76
2018-02-25T23:52:50.072Z,98497.05
2018-02-25T23:55:17.683Z,98492.72
2018-02-25T23:57:45.241Z,98486.50
